Archival Weather

Snohomish County (Paine Fld)

Everett, Washington (KPAE)

Report from: Tuesday, November 7, 2023 3:53 AM PST
Current time: Monday, June 17, 2024 1:18 AM PDT

Current weather – Weather history – Daily summaries
Weather forecast

Present weatherLight rain
Temperature10.0°C (50.0°F)
Wind chill8.2°C (46.7°F)
Dew point8.9°C (48.0°F)
Winds 7 kts (3.6 m/s, 8.1 mph) Southwest (220°)
Visibility10 mi. (16.1 km)
Clouds Ceiling: Broken clouds 300 ft. (91 m)
Overcast 5,000 ft. (1,524 m)
Altimeter29.80 in.Hg (1009 mB)
Precipitiation0.03 in. (1 mm)
Precip last 3 hours0.15 in. (4 mm)
Precip last 24 hours0.26 in. (7 mm)
Relative humidity93 %
Density altitude-305 ft. (-93 m)
Sea-level pressure100.9 kPa (1009 mB, 29.81 in.Hg)
Max temp last 6 hours10.6°C (51.1°F)
Min temp last 6 hours10.0°C (50.0°F)
Remarks Fully automated report
Automated weather observing station with precipitation discriminator
Pressure rising more slowly
Flight conditions Low Instrument Meteorological Conditions
Raw dataKPAE 071153Z AUTO 22007KT 10SM -RA BKN003 OVC050 10/09 A2980 RMK AO2 SLP094 P0003 60015 70026 T01000089 10106 20100 51025
An error has occurred. This application may no longer respond until reloaded. Reload 🗙